<?xml version="1.0" encoding="utf-8"?>
<gpx xmlns:xsi="http://www.w3.org/2001/XMLSchema-instance" xmlns:xsd="http://www.w3.org/2001/XMLSchema" version="1.1" creator="Shapelink.com" xmlns="http://www.topografix.com/GPX/1/1" xmlns:gpxtpx="http://www.garmin.com/xmlschemas/TrackPointExtension/v1">
  <metadata>
    <name>Övrigt 1.49 km, 2020-09-09</name>
    <desc></desc>
    <author><name>Marian Moron</name></author> 
    <time>2020-09-09T19:44:17Z</time>
  </metadata>
  <trk>
    <name>Övrigt 1.49 km, 2020-09-09</name>
    <trkseg>
      <trkpt lat="51.22990877015" lon="4.457741099317">
        <ele>9</ele>
        <time>2020-09-09T19:44:17Z</time>
      </trkpt>
      <trkpt lat="51.229925198674" lon="4.457223097897">
        <ele>8</ele>
        <time>2020-09-09T19:44:51Z</time>
      </trkpt>
      <trkpt lat="51.229915810946" lon="4.457193845066">
        <ele>7.4</ele>
        <time>2020-09-09T19:44:53Z</time>
      </trkpt>
      <trkpt lat="51.229823693865" lon="4.456949093586">
        <ele>3.4</ele>
        <time>2020-09-09T19:45:16Z</time>
      </trkpt>
      <trkpt lat="51.229738114666" lon="4.456789669848">
        <ele>0</ele>
        <time>2020-09-09T19:45:31Z</time>
      </trkpt>
      <trkpt lat="51.230126783369" lon="4.45644081517">
        <ele>3.4</ele>
        <time>2020-09-09T19:46:13Z</time>
      </trkpt>
      <trkpt lat="51.230444457379" lon="4.456447688328">
        <ele>5.4</ele>
        <time>2020-09-09T19:46:39Z</time>
      </trkpt>
      <trkpt lat="51.230502627765" lon="4.456498734099">
        <ele>6.8</ele>
        <time>2020-09-09T19:47:08Z</time>
      </trkpt>
      <trkpt lat="51.230728603789" lon="4.45651206132">
        <ele>5.2</ele>
        <time>2020-09-09T19:47:40Z</time>
      </trkpt>
      <trkpt lat="51.230979054961" lon="4.456374681979">
        <ele>5.2</ele>
        <time>2020-09-09T19:47:55Z</time>
      </trkpt>
      <trkpt lat="51.23101769552" lon="4.45632682133">
        <ele>6.6</ele>
        <time>2020-09-09T19:48:01Z</time>
      </trkpt>
      <trkpt lat="51.231102687986" lon="4.456228585462">
        <ele>8</ele>
        <time>2020-09-09T19:48:16Z</time>
      </trkpt>
      <trkpt lat="51.231110399334" lon="4.456174773664">
        <ele>4.2</ele>
        <time>2020-09-09T19:48:40Z</time>
      </trkpt>
      <trkpt lat="51.230956423831" lon="4.456107131731">
        <ele>2.2</ele>
        <time>2020-09-09T19:49:07Z</time>
      </trkpt>
      <trkpt lat="51.230989699974" lon="4.456039405979">
        <ele>3.2</ele>
        <time>2020-09-09T19:49:36Z</time>
      </trkpt>
      <trkpt lat="51.230936726366" lon="4.45595801773">
        <ele>2.2</ele>
        <time>2020-09-09T19:49:42Z</time>
      </trkpt>
      <trkpt lat="51.230543112342" lon="4.455573372339">
        <ele>0.2</ele>
        <time>2020-09-09T19:50:24Z</time>
      </trkpt>
      <trkpt lat="51.230133488889" lon="4.455255363053">
        <ele>0</ele>
        <time>2020-09-09T19:51:12Z</time>
      </trkpt>
      <trkpt lat="51.229725877092" lon="4.455192582622">
        <ele>0</ele>
        <time>2020-09-09T19:51:44Z</time>
      </trkpt>
      <trkpt lat="51.229413316041" lon="4.455017065636">
        <ele>0</ele>
        <time>2020-09-09T19:52:13Z</time>
      </trkpt>
      <trkpt lat="51.229391690739" lon="4.455000720931">
        <ele>0</ele>
        <time>2020-09-09T19:52:16Z</time>
      </trkpt>
      <trkpt lat="51.229129588726" lon="4.454904161443">
        <ele>0</ele>
        <time>2020-09-09T19:52:41Z</time>
      </trkpt>
      <trkpt lat="51.229080806068" lon="4.45490692747">
        <ele>0</ele>
        <time>2020-09-09T19:52:45Z</time>
      </trkpt>
      <trkpt lat="51.228930853877" lon="4.45490273652">
        <ele>0</ele>
        <time>2020-09-09T19:52:57Z</time>
      </trkpt>
      <trkpt lat="51.228736226159" lon="4.454870801481">
        <ele>0</ele>
        <time>2020-09-09T19:53:14Z</time>
      </trkpt>
      <trkpt lat="51.22850228733" lon="4.454754963623">
        <ele>1</ele>
        <time>2020-09-09T19:54:03Z</time>
      </trkpt>
      <trkpt lat="51.228475129974" lon="4.454756975279">
        <ele>1</ele>
        <time>2020-09-09T19:54:08Z</time>
      </trkpt>
      <trkpt lat="51.228174471221" lon="4.454906508375">
        <ele>0</ele>
        <time>2020-09-09T19:54:35Z</time>
      </trkpt>
      <trkpt lat="51.228145386028" lon="4.454825036307">
        <ele>1</ele>
        <time>2020-09-09T19:54:39Z</time>
      </trkpt>
      <trkpt lat="51.228138261413" lon="4.45478874268">
        <ele>1</ele>
        <time>2020-09-09T19:54:41Z</time>
      </trkpt>
      <trkpt lat="51.228104649994" lon="4.45476359698">
        <ele>0.6</ele>
        <time>2020-09-09T19:54:45Z</time>
      </trkpt>
      <trkpt lat="51.228003815737" lon="4.454757981107">
        <ele>0</ele>
        <time>2020-09-09T19:55:37Z</time>
      </trkpt>
      <trkpt lat="51.227709275771" lon="4.454715903969">
        <ele>0</ele>
        <time>2020-09-09T19:56:53Z</time>
      </trkpt>
      <trkpt lat="51.227651021566" lon="4.454784719368">
        <ele>0</ele>
        <time>2020-09-09T19:57:04Z</time>
      </trkpt>
      <trkpt lat="51.227695864731" lon="4.455009354288">
        <ele>0</ele>
        <time>2020-09-09T19:57:33Z</time>
      </trkpt>
      <trkpt lat="51.22783005895" lon="4.455319065493">
        <ele>0</ele>
        <time>2020-09-09T19:58:05Z</time>
      </trkpt>
      <trkpt lat="51.227897784702" lon="4.45554059911">
        <ele>0</ele>
        <time>2020-09-09T19:58:24Z</time>
      </trkpt>
      <trkpt lat="51.228060309743" lon="4.4558431857">
        <ele>0</ele>
        <time>2020-09-09T19:58:57Z</time>
      </trkpt>
      <trkpt lat="51.228174722678" lon="4.456291701169">
        <ele>0</ele>
        <time>2020-09-09T19:59:50Z</time>
      </trkpt>
      <trkpt lat="51.228276981858" lon="4.456597891976">
        <ele>2.6</ele>
        <time>2020-09-09T20:00:20Z</time>
      </trkpt>
      <trkpt lat="51.228489127747" lon="4.456875919599">
        <ele>0</ele>
        <time>2020-09-09T20:00:45Z</time>
      </trkpt>
      <trkpt lat="51.228640756318" lon="4.456810792236">
        <ele>0</ele>
        <time>2020-09-09T20:01:03Z</time>
      </trkpt>
      <trkpt lat="51.229092456909" lon="4.456721357363">
        <ele>0</ele>
        <time>2020-09-09T20:01:46Z</time>
      </trkpt>
      <trkpt lat="51.229531417012" lon="4.456674502542">
        <ele>3.6</ele>
        <time>2020-09-09T20:02:28Z</time>
      </trkpt>
      <trkpt lat="51.229704000333" lon="4.456535865916">
        <ele>4.2</ele>
        <time>2020-09-09T20:02:56Z</time>
      </trkpt>
      <trkpt lat="51.2299716344" lon="4.456450621993">
        <ele>0</ele>
        <time>2020-09-09T20:03:48Z</time>
      </trkpt>
      <trkpt lat="51.230437416583" lon="4.456447604509">
        <ele>3.4</ele>
        <time>2020-09-09T20:04:36Z</time>
      </trkpt>
      <trkpt lat="51.230889033355" lon="4.456332521022">
        <ele>2.4</ele>
        <time>2020-09-09T20:05:18Z</time>
      </trkpt>
      <trkpt lat="51.231046613075" lon="4.456112579966">
        <ele>0</ele>
        <time>2020-09-09T20:05:42Z</time>
      </trkpt>
      <trkpt lat="51.231050552568" lon="4.456155411475">
        <ele>0</ele>
        <time>2020-09-09T20:05:45Z</time>
      </trkpt>
      <trkpt lat="51.23123478673" lon="4.456452046916">
        <ele>2</ele>
        <time>2020-09-09T20:06:20Z</time>
      </trkpt>
      <trkpt lat="51.231217939111" lon="4.457182529501">
        <ele>0.2</ele>
        <time>2020-09-09T20:06:59Z</time>
      </trkpt>
      <trkpt lat="51.231174185593" lon="4.457473297612">
        <ele>3</ele>
        <time>2020-09-09T20:07:20Z</time>
      </trkpt>
      <trkpt lat="51.231086343281" lon="4.457688796261">
        <ele>12</ele>
        <time>2020-09-09T20:07:48Z</time>
      </trkpt>
      <trkpt lat="51.231023898126" lon="4.457709667192">
        <ele>12.2</ele>
        <time>2020-09-09T20:07:55Z</time>
      </trkpt>
      <trkpt lat="51.230698596587" lon="4.457726179535">
        <ele>14.6</ele>
        <time>2020-09-09T20:08:29Z</time>
      </trkpt>
      <trkpt lat="51.230245890168" lon="4.457701033835">
        <ele>14.8</ele>
        <time>2020-09-09T20:09:10Z</time>
      </trkpt>
      <trkpt lat="51.230210686188" lon="4.457702123482">
        <ele>14.2</ele>
        <time>2020-09-09T20:09:13Z</time>
      </trkpt>
      <trkpt lat="51.229798631984" lon="4.457972523576">
        <ele>6.6</ele>
        <time>2020-09-09T20:10:00Z</time>
      </trkpt>
    </trkseg>
  </trk>
</gpx>